WIDN/TNJ METAR and TAF weather

Enter ICAO airport designator
Station Type Date Time Source
WIDN METAR 2021/05/11 11:00 UTC NOAA

WIDN 111100Z 13004KT 9999 FEW017 29/26 Q1006 NOSIG


Station Type Date Time Source
WIDN Decoded METAR 2021/05/11 11:00 UTC NOAA

Station name not available
May 11, 2021 - 07:00 AM EDT / 2021.05.11 1100 UTC
Wind: from the SE (130 degrees) at 5 MPH (4 KT):0
Visibility: greater than 7 mile(s):0
Sky conditions: mostly clear
Temperature: 84 F (29 C)
Dew Point: 78 F (26 C)
Relative Humidity: 83%
Pressure (altimeter): 29.71 in. Hg (1006 hPa)
ob: WIDN 111100Z 13004KT 9999 FEW017 29/26 Q1006 NOSIG
cycle: 11

Station Type Date Time Source
WIDN TAF 2011/04/08 06:00 UTC NOAA

TAF WIDN 080500Z 0806/0818 04010KT 9000 SCT020
BECMG 35010KT

Example: see airport list